sensor_id;sensor_type;location;lat;lon;timestamp;P1;durP1;ratioP1;P2;durP2;ratioP2
74912;SDS011;63878;55.624;37.304;2023-02-02T00:04:40;16.55;;;7.82;;
74912;SDS011;63878;55.624;37.304;2023-02-02T00:14:41;20.20;;;9.23;;
74912;SDS011;63878;55.624;37.304;2023-02-02T00:24:42;20.73;;;8.80;;
74912;SDS011;63878;55.624;37.304;2023-02-02T00:34:43;20.58;;;8.88;;
74912;SDS011;63878;55.624;37.304;2023-02-02T00:44:43;19.70;;;9.37;;
74912;SDS011;63878;55.624;37.304;2023-02-02T00:54:44;18.07;;;8.50;;
74912;SDS011;63878;55.624;37.304;2023-02-02T01:04:45;23.13;;;8.53;;
74912;SDS011;63878;55.624;37.304;2023-02-02T01:14:45;15.73;;;6.97;;
74912;SDS011;63878;55.624;37.304;2023-02-02T01:24:46;20.07;;;8.13;;
74912;SDS011;63878;55.624;37.304;2023-02-02T01:34:47;20.57;;;8.37;;
74912;SDS011;63878;55.624;37.304;2023-02-02T01:55:16;19.00;;;9.00;;
74912;SDS011;63878;55.624;37.304;2023-02-02T02:05:21;19.98;;;8.15;;
74912;SDS011;63878;55.624;37.304;2023-02-02T02:15:27;20.98;;;8.27;;
74912;SDS011;63878;55.624;37.304;2023-02-02T02:36:16;16.20;;;7.72;;
74912;SDS011;63878;55.624;37.304;2023-02-02T02:46:34;15.48;;;7.47;;
74912;SDS011;63878;55.624;37.304;2023-02-02T02:56:40;17.92;;;8.40;;
74912;SDS011;63878;55.624;37.304;2023-02-02T03:06:54;18.15;;;8.43;;
74912;SDS011;63878;55.624;37.304;2023-02-02T03:16:59;19.55;;;8.68;;
74912;SDS011;63878;55.624;37.304;2023-02-02T03:27:00;15.57;;;6.57;;
74912;SDS011;63878;55.624;37.304;2023-02-02T03:37:01;16.83;;;7.15;;
74912;SDS011;63878;55.624;37.304;2023-02-02T03:47:01;17.15;;;7.70;;
74912;SDS011;63878;55.624;37.304;2023-02-02T03:57:02;16.40;;;6.40;;
74912;SDS011;63878;55.624;37.304;2023-02-02T04:07:03;18.70;;;6.93;;
74912;SDS011;63878;55.624;37.304;2023-02-02T04:27:04;19.05;;;8.60;;
74912;SDS011;63878;55.624;37.304;2023-02-02T04:37:04;16.83;;;7.78;;
74912;SDS011;63878;55.624;37.304;2023-02-02T04:47:06;18.90;;;8.53;;
74912;SDS011;63878;55.624;37.304;2023-02-02T04:57:07;16.55;;;7.45;;
74912;SDS011;63878;55.624;37.304;2023-02-02T05:07:07;18.17;;;8.25;;
74912;SDS011;63878;55.624;37.304;2023-02-02T05:17:08;19.63;;;7.82;;
74912;SDS011;63878;55.624;37.304;2023-02-02T05:27:09;18.70;;;8.00;;
74912;SDS011;63878;55.624;37.304;2023-02-02T05:37:10;19.67;;;8.05;;
74912;SDS011;63878;55.624;37.304;2023-02-02T05:47:11;21.42;;;9.40;;
74912;SDS011;63878;55.624;37.304;2023-02-02T05:57:12;20.25;;;8.60;;
74912;SDS011;63878;55.624;37.304;2023-02-02T06:07:13;18.92;;;8.60;;
74912;SDS011;63878;55.624;37.304;2023-02-02T06:17:13;19.97;;;8.57;;
74912;SDS011;63878;55.624;37.304;2023-02-02T06:27:14;20.70;;;9.32;;
74912;SDS011;63878;55.624;37.304;2023-02-02T06:37:16;21.63;;;8.90;;
74912;SDS011;63878;55.624;37.304;2023-02-02T06:47:16;23.33;;;10.47;;
74912;SDS011;63878;55.624;37.304;2023-02-02T06:57:17;25.52;;;9.50;;
74912;SDS011;63878;55.624;37.304;2023-02-02T07:07:18;24.23;;;10.57;;
74912;SDS011;63878;55.624;37.304;2023-02-02T07:17:19;23.67;;;10.50;;
74912;SDS011;63878;55.624;37.304;2023-02-02T07:27:20;22.90;;;10.88;;
74912;SDS011;63878;55.624;37.304;2023-02-02T07:37:21;22.92;;;9.88;;
74912;SDS011;63878;55.624;37.304;2023-02-02T07:47:22;25.30;;;10.43;;
74912;SDS011;63878;55.624;37.304;2023-02-02T07:57:23;21.77;;;9.82;;
74912;SDS011;63878;55.624;37.304;2023-02-02T08:07:24;19.23;;;9.50;;
74912;SDS011;63878;55.624;37.304;2023-02-02T08:17:24;15.03;;;8.30;;
74912;SDS011;63878;55.624;37.304;2023-02-02T08:27:25;19.08;;;8.90;;
74912;SDS011;63878;55.624;37.304;2023-02-02T08:37:25;17.20;;;7.32;;
74912;SDS011;63878;55.624;37.304;2023-02-02T08:47:28;18.20;;;9.30;;
74912;SDS011;63878;55.624;37.304;2023-02-02T08:57:28;18.75;;;9.48;;
74912;SDS011;63878;55.624;37.304;2023-02-02T09:07:30;19.57;;;9.47;;
74912;SDS011;63878;55.624;37.304;2023-02-02T09:17:31;18.27;;;7.75;;
74912;SDS011;63878;55.624;37.304;2023-02-02T09:27:35;14.07;;;6.50;;
74912;SDS011;63878;55.624;37.304;2023-02-02T09:37:37;20.88;;;10.32;;
74912;SDS011;63878;55.624;37.304;2023-02-02T09:47:51;16.13;;;8.07;;
74912;SDS011;63878;55.624;37.304;2023-02-02T09:58:22;16.90;;;9.05;;
74912;SDS011;63878;55.624;37.304;2023-02-02T10:08:37;17.77;;;7.32;;
74912;SDS011;63878;55.624;37.304;2023-02-02T10:29:02;14.98;;;7.38;;
74912;SDS011;63878;55.624;37.304;2023-02-02T10:49:29;21.48;;;10.60;;
74912;SDS011;63878;55.624;37.304;2023-02-02T10:59:35;17.73;;;8.15;;
74912;SDS011;63878;55.624;37.304;2023-02-02T11:09:42;23.35;;;10.73;;
74912;SDS011;63878;55.624;37.304;2023-02-02T11:19:43;17.70;;;8.67;;
74912;SDS011;63878;55.624;37.304;2023-02-02T11:29:53;14.95;;;8.90;;
74912;SDS011;63878;55.624;37.304;2023-02-02T11:40:17;20.33;;;8.98;;
74912;SDS011;63878;55.624;37.304;2023-02-02T11:50:23;20.42;;;9.43;;
74912;SDS011;63878;55.624;37.304;2023-02-02T12:00:26;19.00;;;8.10;;
74912;SDS011;63878;55.624;37.304;2023-02-02T12:10:36;20.63;;;9.60;;
74912;SDS011;63878;55.624;37.304;2023-02-02T12:21:02;18.92;;;9.98;;
74912;SDS011;63878;55.624;37.304;2023-02-02T13:12:09;19.33;;;7.95;;
74912;SDS011;63878;55.624;37.304;2023-02-02T13:22:14;17.73;;;7.97;;
74912;SDS011;63878;55.624;37.304;2023-02-02T13:32:29;16.33;;;8.25;;
74912;SDS011;63878;55.624;37.304;2023-02-02T13:42:49;14.48;;;6.35;;
74912;SDS011;63878;55.624;37.304;2023-02-02T13:53:08;21.92;;;11.77;;
74912;SDS011;63878;55.624;37.304;2023-02-02T14:03:33;18.75;;;8.73;;
74912;SDS011;63878;55.624;37.304;2023-02-02T14:23:50;20.80;;;9.07;;
74912;SDS011;63878;55.624;37.304;2023-02-02T14:34:06;25.35;;;10.85;;
74912;SDS011;63878;55.624;37.304;2023-02-02T14:44:27;19.50;;;8.32;;
74912;SDS011;63878;55.624;37.304;2023-02-02T15:04:37;22.30;;;9.98;;
74912;SDS011;63878;55.624;37.304;2023-02-02T15:25:17;23.95;;;10.77;;
74912;SDS011;63878;55.624;37.304;2023-02-02T15:35:23;22.02;;;9.27;;
74912;SDS011;63878;55.624;37.304;2023-02-02T15:55:32;22.50;;;10.52;;
74912;SDS011;63878;55.624;37.304;2023-02-02T16:15:35;24.17;;;11.27;;
74912;SDS011;63878;55.624;37.304;2023-02-02T16:25:46;24.87;;;10.17;;
74912;SDS011;63878;55.624;37.304;2023-02-02T16:35:49;25.27;;;11.07;;
74912;SDS011;63878;55.624;37.304;2023-02-02T16:45:51;25.05;;;11.25;;
74912;SDS011;63878;55.624;37.304;2023-02-02T16:55:56;23.63;;;11.63;;
74912;SDS011;63878;55.624;37.304;2023-02-02T17:05:57;20.02;;;10.73;;
74912;SDS011;63878;55.624;37.304;2023-02-02T17:15:58;21.40;;;9.65;;
74912;SDS011;63878;55.624;37.304;2023-02-02T17:25:59;18.63;;;10.10;;
74912;SDS011;63878;55.624;37.304;2023-02-02T17:36:00;21.95;;;11.23;;
74912;SDS011;63878;55.624;37.304;2023-02-02T17:46:03;20.20;;;9.13;;
74912;SDS011;63878;55.624;37.304;2023-02-02T17:56:05;24.40;;;10.95;;
74912;SDS011;63878;55.624;37.304;2023-02-02T18:06:06;18.77;;;8.38;;
74912;SDS011;63878;55.624;37.304;2023-02-02T18:16:09;24.75;;;11.48;;
74912;SDS011;63878;55.624;37.304;2023-02-02T18:26:12;23.33;;;9.85;;
74912;SDS011;63878;55.624;37.304;2023-02-02T18:36:16;23.02;;;12.48;;
74912;SDS011;63878;55.624;37.304;2023-02-02T18:46:18;23.33;;;10.68;;
74912;SDS011;63878;55.624;37.304;2023-02-02T18:56:19;23.80;;;11.82;;
74912;SDS011;63878;55.624;37.304;2023-02-02T19:06:20;21.23;;;11.07;;
74912;SDS011;63878;55.624;37.304;2023-02-02T19:16:22;23.13;;;11.95;;
74912;SDS011;63878;55.624;37.304;2023-02-02T19:26:25;23.75;;;12.07;;
74912;SDS011;63878;55.624;37.304;2023-02-02T19:36:27;21.90;;;11.35;;
74912;SDS011;63878;55.624;37.304;2023-02-02T19:46:29;28.10;;;11.27;;
74912;SDS011;63878;55.624;37.304;2023-02-02T19:56:32;28.10;;;12.27;;
74912;SDS011;63878;55.624;37.304;2023-02-02T20:06:37;25.30;;;11.65;;
74912;SDS011;63878;55.624;37.304;2023-02-02T20:16:40;30.58;;;12.98;;
74912;SDS011;63878;55.624;37.304;2023-02-02T20:26:42;23.90;;;10.75;;
74912;SDS011;63878;55.624;37.304;2023-02-02T20:36:44;24.33;;;11.77;;
74912;SDS011;63878;55.624;37.304;2023-02-02T20:46:44;27.40;;;13.45;;
74912;SDS011;63878;55.624;37.304;2023-02-02T20:56:45;28.73;;;11.80;;
74912;SDS011;63878;55.624;37.304;2023-02-02T21:06:46;26.60;;;12.25;;
74912;SDS011;63878;55.624;37.304;2023-02-02T21:16:47;25.77;;;14.50;;
74912;SDS011;63878;55.624;37.304;2023-02-02T21:26:48;25.98;;;11.82;;
74912;SDS011;63878;55.624;37.304;2023-02-02T21:36:49;26.42;;;10.55;;
74912;SDS011;63878;55.624;37.304;2023-02-02T21:46:52;28.52;;;12.38;;
74912;SDS011;63878;55.624;37.304;2023-02-02T21:56:53;29.58;;;11.98;;
74912;SDS011;63878;55.624;37.304;2023-02-02T22:07:00;26.58;;;12.88;;
74912;SDS011;63878;55.624;37.304;2023-02-02T22:27:26;26.10;;;11.40;;
74912;SDS011;63878;55.624;37.304;2023-02-02T22:37:39;24.23;;;12.07;;
74912;SDS011;63878;55.624;37.304;2023-02-02T22:47:40;27.13;;;12.35;;
74912;SDS011;63878;55.624;37.304;2023-02-02T22:57:41;28.65;;;13.27;;
74912;SDS011;63878;55.624;37.304;2023-02-02T23:07:44;27.58;;;11.57;;
74912;SDS011;63878;55.624;37.304;2023-02-02T23:17:46;28.23;;;13.02;;
74912;SDS011;63878;55.624;37.304;2023-02-02T23:27:47;25.60;;;10.88;;
74912;SDS011;63878;55.624;37.304;2023-02-02T23:37:50;30.38;;;12.23;;
74912;SDS011;63878;55.624;37.304;2023-02-02T23:47:50;28.13;;;11.65;;
74912;SDS011;63878;55.624;37.304;2023-02-02T23:57:51;27.27;;;12.77;;
